createdAt,value
2017-09-08T00:00:25.260Z,18.01
2017-09-08T00:00:53.462Z,17.96
2017-09-08T00:01:21.514Z,18.11
2017-09-08T00:01:49.890Z,18.14
2017-09-08T00:02:17.953Z,18.03
2017-09-08T00:02:46.103Z,18.03
2017-09-08T00:03:14.281Z,18.1
2017-09-08T00:03:42.489Z,18.01
2017-09-08T00:04:10.589Z,17.92
2017-09-08T00:04:38.743Z,17.95
2017-09-08T00:05:06.902Z,17.87
2017-09-08T00:05:35.094Z,17.9
2017-09-08T00:06:03.295Z,17.84
2017-09-08T00:06:31.309Z,17.83
2017-09-08T00:06:59.508Z,17.9
2017-09-08T00:07:27.519Z,17.87
2017-09-08T00:07:55.700Z,17.86
2017-09-08T00:08:23.893Z,17.92
2017-09-08T00:08:52.074Z,17.9
2017-09-08T00:09:20.078Z,17.83
2017-09-08T00:09:48.320Z,17.88
2017-09-08T00:10:16.644Z,17.84
2017-09-08T00:10:44.702Z,17.88
2017-09-08T00:11:12.774Z,17.94
2017-09-08T00:11:40.948Z,17.87
2017-09-08T00:12:09.047Z,17.77
2017-09-08T00:12:37.163Z,17.8
2017-09-08T00:13:05.285Z,17.79
2017-09-08T00:13:33.478Z,17.83
2017-09-08T00:14:01.469Z,17.9
2017-09-08T00:14:29.619Z,17.9
2017-09-08T00:14:57.634Z,17.81
2017-09-08T00:15:25.998Z,17.88
2017-09-08T00:15:54.210Z,17.83
2017-09-08T00:16:22.184Z,17.9
2017-09-08T00:16:50.401Z,17.88
2017-09-08T00:17:18.496Z,17.96
2017-09-08T00:17:46.663Z,17.95
2017-09-08T00:18:14.760Z,17.98
2017-09-08T00:18:42.747Z,18.03
2017-09-08T00:19:10.750Z,18.05
2017-09-08T00:19:38.913Z,17.99
2017-09-08T00:20:07.086Z,18.01
2017-09-08T00:20:35.093Z,18.08
2017-09-08T00:21:03.160Z,18.03
2017-09-08T00:21:31.327Z,18.02
2017-09-08T00:21:59.381Z,18.03
2017-09-08T00:22:27.578Z,17.94
2017-09-08T00:22:55.779Z,17.96
2017-09-08T00:23:23.872Z,17.96
2017-09-08T00:23:52.070Z,17.99
2017-09-08T00:24:20.164Z,17.98
2017-09-08T00:24:48.342Z,17.88
2017-09-08T00:25:16.350Z,17.86
2017-09-08T00:25:44.372Z,17.88
2017-09-08T00:26:12.378Z,17.87
2017-09-08T00:26:40.624Z,17.96
2017-09-08T00:27:08.857Z,17.96
2017-09-08T00:27:37.011Z,17.95
2017-09-08T00:28:05.131Z,17.88
2017-09-08T00:28:33.178Z,17.9
2017-09-08T00:29:01.262Z,17.87
2017-09-08T00:29:29.419Z,17.84
2017-09-08T00:29:57.273Z,17.8
2017-09-08T00:30:25.554Z,17.95
2017-09-08T00:30:53.567Z,17.94
2017-09-08T00:31:21.748Z,17.8
2017-09-08T00:31:49.836Z,17.86
2017-09-08T00:32:18.006Z,17.83
2017-09-08T00:32:45.998Z,17.86
2017-09-08T00:33:14.070Z,17.88
2017-09-08T00:33:42.171Z,17.76
2017-09-08T00:34:10.247Z,17.81
2017-09-08T00:34:38.477Z,17.86
2017-09-08T00:35:06.707Z,17.84
2017-09-08T00:35:35.041Z,17.8
2017-09-08T00:36:03.233Z,17.71
2017-09-08T00:36:31.150Z,17.66
2017-09-08T00:36:59.342Z,17.71
2017-09-08T00:37:27.433Z,17.58
2017-09-08T00:37:55.589Z,17.54
2017-09-08T00:38:23.594Z,17.55
2017-09-08T00:38:51.775Z,17.52
2017-09-08T00:39:19.975Z,17.52
2017-09-08T00:39:48.098Z,17.54
2017-09-08T00:40:16.268Z,17.46
2017-09-08T00:40:44.570Z,17.52
2017-09-08T00:41:12.661Z,17.43
2017-09-08T00:41:40.747Z,17.49
2017-09-08T00:42:08.900Z,17.43
2017-09-08T00:42:36.866Z,17.49
2017-09-08T00:43:04.835Z,17.46
2017-09-08T00:43:32.913Z,17.46
2017-09-08T00:44:00.994Z,17.43
2017-09-08T00:44:29.204Z,17.54
2017-09-08T00:44:57.265Z,17.43
2017-09-08T00:45:25.213Z,17.49
2017-09-08T00:45:53.414Z,17.47
2017-09-08T00:46:21.499Z,17.47
2017-09-08T00:46:49.678Z,17.4
2017-09-08T00:47:17.871Z,17.42
2017-09-08T00:47:46.114Z,17.39
2017-09-08T00:48:14.219Z,17.36
2017-09-08T00:48:42.310Z,17.3
2017-09-08T00:49:10.470Z,17.31
2017-09-08T00:49:38.603Z,17.32
2017-09-08T00:50:06.706Z,17.36
2017-09-08T00:50:34.887Z,17.36
2017-09-08T00:51:02.940Z,17.3
2017-09-08T00:51:31.118Z,17.32
2017-09-08T00:51:59.286Z,17.28
2017-09-08T00:52:27.456Z,17.25
2017-09-08T00:52:55.639Z,17.25
2017-09-08T00:53:23.715Z,17.2
2017-09-08T00:53:51.899Z,17.2
2017-09-08T00:54:20.119Z,17.24
2017-09-08T00:54:48.268Z,17.21
2017-09-08T00:55:16.378Z,17.35
2017-09-08T00:55:44.707Z,17.32
2017-09-08T00:56:12.859Z,17.38
2017-09-08T00:56:40.932Z,17.36
2017-09-08T00:57:08.990Z,17.32
2017-09-08T00:57:37.151Z,17.36
2017-09-08T00:58:05.334Z,17.31
2017-09-08T00:58:33.463Z,17.28
2017-09-08T00:59:01.548Z,17.31
2017-09-08T00:59:29.612Z,17.28
2017-09-08T00:59:57.797Z,17.32
2017-09-08T01:00:25.989Z,17.28
2017-09-08T01:00:54.307Z,17.28
2017-09-08T01:01:22.494Z,17.35
2017-09-08T01:01:50.478Z,17.28
2017-09-08T01:02:18.697Z,17.36
2017-09-08T01:02:46.778Z,17.31
2017-09-08T01:03:14.910Z,17.36
2017-09-08T01:03:43.082Z,17.36
2017-09-08T01:04:11.174Z,17.36
2017-09-08T01:04:39.396Z,17.31
2017-09-08T01:05:07.509Z,17.38
2017-09-08T01:05:35.719Z,17.35
2017-09-08T01:06:03.962Z,17.36
2017-09-08T01:06:31.918Z,17.3
2017-09-08T01:07:00.136Z,17.27
2017-09-08T01:07:28.369Z,17.21
2017-09-08T01:07:56.530Z,17.2
2017-09-08T01:08:24.596Z,17.18
2017-09-08T01:08:52.694Z,17.15
2017-09-08T01:09:20.816Z,17.2
2017-09-08T01:09:48.908Z,17.1
2017-09-08T01:10:17.026Z,17.07
2017-09-08T01:10:45.243Z,17.09
2017-09-08T01:11:13.317Z,17.05
2017-09-08T01:11:41.469Z,16.97
2017-09-08T01:12:09.624Z,16.92
2017-09-08T01:12:37.686Z,16.97
2017-09-08T01:13:05.859Z,16.87
2017-09-08T01:13:33.901Z,16.92
2017-09-08T01:14:01.973Z,16.88
2017-09-08T01:14:30.068Z,16.81
2017-09-08T01:14:58.138Z,16.73
2017-09-08T01:15:26.186Z,16.73
2017-09-08T01:15:54.628Z,16.7
2017-09-08T01:16:22.729Z,16.74
2017-09-08T01:16:50.789Z,16.69
2017-09-08T01:17:18.991Z,16.76
2017-09-08T01:17:47.075Z,16.72
2017-09-08T01:18:15.228Z,16.73
2017-09-08T01:18:43.398Z,16.65
2017-09-08T01:19:11.541Z,16.8
2017-09-08T01:19:39.721Z,16.7
2017-09-08T01:20:07.847Z,16.7
2017-09-08T01:20:35.977Z,16.7
2017-09-08T01:21:04.164Z,16.72
2017-09-08T01:21:32.139Z,16.72
2017-09-08T01:22:00.239Z,16.66
2017-09-08T01:22:28.083Z,16.69
2017-09-08T01:22:55.939Z,16.66
2017-09-08T01:23:24.134Z,16.77
2017-09-08T01:23:52.208Z,16.73
2017-09-08T01:24:20.278Z,16.73
2017-09-08T01:24:48.377Z,16.8
2017-09-08T01:25:16.478Z,16.74
2017-09-08T01:25:44.547Z,16.69
2017-09-08T01:26:12.733Z,16.74
2017-09-08T01:26:40.712Z,16.74
2017-09-08T01:27:08.785Z,16.7
2017-09-08T01:27:36.879Z,16.62
2017-09-08T01:28:05.103Z,16.77
2017-09-08T01:28:33.291Z,16.69
2017-09-08T01:29:01.291Z,16.67
2017-09-08T01:29:29.500Z,16.66
2017-09-08T01:29:57.530Z,16.69
2017-09-08T01:30:25.629Z,16.66
2017-09-08T01:30:53.516Z,16.62
2017-09-08T01:31:21.717Z,16.58
2017-09-08T01:31:49.819Z,16.59
2017-09-08T01:32:18.022Z,16.67
2017-09-08T01:32:46.204Z,16.73
2017-09-08T01:33:14.302Z,16.69
2017-09-08T01:33:42.437Z,16.7
2017-09-08T01:34:10.443Z,16.69
2017-09-08T01:34:38.616Z,16.69
2017-09-08T01:35:06.803Z,16.62
2017-09-08T01:35:35.029Z,16.7
2017-09-08T01:36:03.117Z,16.7
2017-09-08T01:36:31.311Z,16.76
2017-09-08T01:36:59.501Z,16.73
2017-09-08T01:37:27.660Z,16.72
2017-09-08T01:37:55.775Z,16.62
2017-09-08T01:38:23.589Z,16.63
2017-09-08T01:38:51.781Z,16.62
2017-09-08T01:39:19.921Z,16.55
2017-09-08T01:39:47.783Z,16.59
2017-09-08T01:40:15.959Z,16.54
2017-09-08T01:40:44.139Z,16.49
2017-09-08T01:41:12.157Z,16.48
2017-09-08T01:41:40.263Z,16.42
2017-09-08T01:42:08.396Z,16.42
2017-09-08T01:42:36.378Z,16.42
2017-09-08T01:43:04.577Z,16.4
2017-09-08T01:43:32.714Z,16.37
2017-09-08T01:44:00.899Z,16.4
2017-09-08T01:44:28.851Z,16.36
2017-09-08T01:44:57.008Z,16.36
2017-09-08T01:45:25.091Z,16.33
2017-09-08T01:45:53.295Z,16.36
2017-09-08T01:46:21.484Z,16.3
2017-09-08T01:46:49.520Z,16.34
2017-09-08T01:47:17.720Z,16.32
2017-09-08T01:47:45.826Z,16.37
2017-09-08T01:48:13.896Z,16.34
2017-09-08T01:48:42.006Z,16.39
2017-09-08T01:49:10.118Z,16.34
2017-09-08T01:49:38.229Z,16.36
2017-09-08T01:50:06.321Z,16.39
2017-09-08T01:50:34.390Z,16.37
2017-09-08T01:51:02.611Z,16.37
2017-09-08T01:51:30.647Z,16.39
2017-09-08T01:51:58.735Z,16.34
2017-09-08T01:52:26.800Z,16.32
2017-09-08T01:52:54.959Z,16.37
2017-09-08T01:53:23.084Z,16.37
2017-09-08T01:53:51.091Z,16.32
2017-09-08T01:54:19.296Z,16.27
2017-09-08T01:54:47.284Z,16.27
2017-09-08T01:55:15.451Z,16.17
2017-09-08T01:55:43.540Z,16.18
2017-09-08T01:56:11.716Z,16.14
2017-09-08T01:56:39.827Z,16.11
2017-09-08T01:57:07.899Z,16.11
2017-09-08T01:57:35.895Z,16.08
2017-09-08T01:58:03.873Z,16.16
2017-09-08T01:58:31.996Z,16.06
2017-09-08T01:59:00.081Z,16.16
2017-09-08T01:59:28.301Z,16.1
2017-09-08T01:59:56.352Z,16.11
2017-09-08T02:00:24.547Z,16.1
2017-09-08T02:00:52.535Z,16.13
2017-09-08T02:01:20.629Z,16.1
2017-09-08T02:01:48.833Z,16.16
2017-09-08T02:02:17.006Z,16.1
2017-09-08T02:02:45.093Z,16.14
2017-09-08T02:03:13.257Z,16.13
2017-09-08T02:03:41.311Z,16.18
2017-09-08T02:04:09.470Z,16.1
2017-09-08T02:04:37.675Z,16.1
2017-09-08T02:05:05.903Z,16.14
2017-09-08T02:05:33.981Z,16.13
2017-09-08T02:06:02.080Z,16.1
2017-09-08T02:06:30.386Z,16.16
2017-09-08T02:06:58.460Z,16.17
2017-09-08T02:07:26.521Z,16.1
2017-09-08T02:07:54.634Z,16.04
2017-09-08T02:08:22.656Z,16.04
2017-09-08T02:08:50.851Z,16.08
2017-09-08T02:09:18.845Z,16.11
2017-09-08T02:09:47.067Z,16.06
2017-09-08T02:10:15.127Z,16
2017-09-08T02:10:43.219Z,15.99
2017-09-08T02:11:11.187Z,15.98
2017-09-08T02:11:39.344Z,15.84
2017-09-08T02:12:07.537Z,15.91
2017-09-08T02:12:35.737Z,15.84
2017-09-08T02:13:03.977Z,15.88
2017-09-08T02:13:32.154Z,15.84
2017-09-08T02:14:00.287Z,15.89
2017-09-08T02:14:28.257Z,15.7
2017-09-08T02:14:56.196Z,15.78
2017-09-08T02:15:24.165Z,15.78
2017-09-08T02:15:52.141Z,15.68
2017-09-08T02:16:20.231Z,15.75
2017-09-08T02:16:48.329Z,15.81
2017-09-08T02:17:16.467Z,15.68
2017-09-08T02:17:44.541Z,15.75
2017-09-08T02:18:12.617Z,15.84
2017-09-08T02:18:40.687Z,15.7
2017-09-08T02:19:08.854Z,15.78
2017-09-08T02:19:36.919Z,15.75
2017-09-08T02:20:04.912Z,15.73
2017-09-08T02:20:33.126Z,15.75
2017-09-08T02:21:01.111Z,15.73
2017-09-08T02:21:29.287Z,15.7
2017-09-08T02:21:57.587Z,15.71
2017-09-08T02:22:25.705Z,15.8
2017-09-08T02:22:53.926Z,15.73
2017-09-08T02:23:22.007Z,15.77
2017-09-08T02:23:50.240Z,15.77
2017-09-08T02:24:18.449Z,15.8
2017-09-08T02:24:46.563Z,15.74
2017-09-08T02:25:14.626Z,15.89
2017-09-08T02:25:42.679Z,15.8
2017-09-08T02:26:10.787Z,15.73
2017-09-08T02:26:39.007Z,15.77
2017-09-08T02:27:07.280Z,15.88
2017-09-08T02:27:35.375Z,15.86
2017-09-08T02:28:03.571Z,15.89
2017-09-08T02:28:31.670Z,15.88
2017-09-08T02:28:59.883Z,15.8
2017-09-08T02:29:27.988Z,15.88
2017-09-08T02:29:56.187Z,15.86
2017-09-08T02:30:24.371Z,15.8
2017-09-08T02:30:52.503Z,15.81
2017-09-08T02:31:20.582Z,15.73
2017-09-08T02:31:48.861Z,15.73
2017-09-08T02:32:16.924Z,15.68
2017-09-08T02:32:45.109Z,15.7
2017-09-08T02:33:13.116Z,15.63
2017-09-08T02:33:41.336Z,15.7
2017-09-08T02:34:09.553Z,15.63
2017-09-08T02:34:37.739Z,15.63
2017-09-08T02:35:05.960Z,15.67
2017-09-08T02:35:33.971Z,15.6
2017-09-08T02:36:02.068Z,15.67
2017-09-08T02:36:30.283Z,15.67
2017-09-08T02:36:58.381Z,15.67
2017-09-08T02:37:26.472Z,15.7
2017-09-08T02:37:54.589Z,15.62
2017-09-08T02:38:22.779Z,15.68
2017-09-08T02:38:50.977Z,15.8
2017-09-08T02:39:19.188Z,15.77
2017-09-08T02:39:47.379Z,15.75
2017-09-08T02:40:15.573Z,15.74
2017-09-08T02:40:43.744Z,15.74
2017-09-08T02:41:11.945Z,15.65
2017-09-08T02:41:40.022Z,15.65
2017-09-08T02:42:08.205Z,15.67
2017-09-08T02:42:36.306Z,15.67
2017-09-08T02:43:04.427Z,15.63
2017-09-08T02:43:32.609Z,15.59
2017-09-08T02:44:00.801Z,15.7
2017-09-08T02:44:29.016Z,15.59
2017-09-08T02:44:57.235Z,15.49
2017-09-08T02:45:25.435Z,15.52
2017-09-08T02:45:53.649Z,15.45
2017-09-08T02:46:21.852Z,15.45
2017-09-08T02:46:49.999Z,15.51
2017-09-08T02:47:18.145Z,15.37
2017-09-08T02:47:46.335Z,15.43
2017-09-08T02:48:14.515Z,15.35
2017-09-08T02:48:42.520Z,15.35
2017-09-08T02:49:10.680Z,15.38
2017-09-08T02:49:38.759Z,15.41
2017-09-08T02:50:06.842Z,15.45
2017-09-08T02:50:34.988Z,15.49
2017-09-08T02:51:03.077Z,15.49
2017-09-08T02:51:31.099Z,15.47
2017-09-08T02:51:59.208Z,15.44
2017-09-08T02:52:27.312Z,15.47
2017-09-08T02:52:55.516Z,15.56
2017-09-08T02:53:23.496Z,15.49
2017-09-08T02:53:51.674Z,15.49
2017-09-08T02:54:19.664Z,15.52
2017-09-08T02:54:47.771Z,15.55
2017-09-08T02:55:15.899Z,15.47
2017-09-08T02:55:44.090Z,15.47
2017-09-08T02:56:12.180Z,15.52
2017-09-08T02:56:40.279Z,15.45
2017-09-08T02:57:08.290Z,15.47
2017-09-08T02:57:36.404Z,15.49
2017-09-08T02:58:04.592Z,15.37
2017-09-08T02:58:32.770Z,15.45
2017-09-08T02:59:00.998Z,15.4
2017-09-08T02:59:29.195Z,15.41
2017-09-08T02:59:57.330Z,15.49
2017-09-08T03:00:25.510Z,15.38
2017-09-08T03:00:53.732Z,15.37
2017-09-08T03:01:21.835Z,15.51
2017-09-08T03:01:49.911Z,15.49
2017-09-08T03:02:18.088Z,15.53
2017-09-08T03:02:46.292Z,15.51
2017-09-08T03:03:14.298Z,15.49
2017-09-08T03:03:42.364Z,15.37
2017-09-08T03:04:10.524Z,15.38
2017-09-08T03:04:38.606Z,15.37
2017-09-08T03:05:06.625Z,15.35
2017-09-08T03:05:34.813Z,15.43
2017-09-08T03:06:03.028Z,15.41
2017-09-08T03:06:31.053Z,15.38
2017-09-08T03:06:59.220Z,15.45
2017-09-08T03:07:27.502Z,15.33
2017-09-08T03:07:55.431Z,15.31
2017-09-08T03:08:23.405Z,15.31
2017-09-08T03:08:51.598Z,15.3
2017-09-08T03:09:19.664Z,15.26
2017-09-08T03:09:47.836Z,15.3
2017-09-08T03:10:15.976Z,15.31
2017-09-08T03:10:44.180Z,15.34
2017-09-08T03:11:12.197Z,15.31
2017-09-08T03:11:40.355Z,15.25
2017-09-08T03:12:08.574Z,15.26
2017-09-08T03:12:36.598Z,15.25
2017-09-08T03:13:04.496Z,15.3
2017-09-08T03:13:32.689Z,15.27
2017-09-08T03:14:00.932Z,15.31
2017-09-08T03:14:29.042Z,15.27
2017-09-08T03:14:57.197Z,15.3
2017-09-08T03:15:25.202Z,15.13
2017-09-08T03:15:53.283Z,15.15
2017-09-08T03:16:21.381Z,15.15
2017-09-08T03:16:49.153Z,15.08
2017-09-08T03:17:17.223Z,15.08
2017-09-08T03:17:45.315Z,15.02
2017-09-08T03:18:13.530Z,15.05
2017-09-08T03:18:41.762Z,14.98
2017-09-08T03:19:09.924Z,15.04
2017-09-08T03:19:38.124Z,15.04
2017-09-08T03:20:06.302Z,15
2017-09-08T03:20:34.218Z,14.93
2017-09-08T03:21:02.364Z,14.9
2017-09-08T03:21:30.565Z,14.94
2017-09-08T03:21:58.746Z,14.93
2017-09-08T03:22:26.918Z,14.87
2017-09-08T03:22:54.999Z,14.89
2017-09-08T03:23:23.146Z,15.01
2017-09-08T03:23:51.341Z,14.98
2017-09-08T03:24:19.419Z,14.85
2017-09-08T03:24:47.625Z,15
2017-09-08T03:25:15.675Z,15
2017-09-08T03:25:43.862Z,15
2017-09-08T03:26:11.959Z,15.05
2017-09-08T03:26:39.884Z,15.02
2017-09-08T03:27:08.054Z,15.01
2017-09-08T03:27:36.332Z,15.05
2017-09-08T03:28:04.545Z,15.02
2017-09-08T03:28:32.612Z,15.04
2017-09-08T03:29:00.900Z,15.1
2017-09-08T03:29:29.075Z,15.05
2017-09-08T03:29:57.257Z,15.04
2017-09-08T03:30:25.468Z,15.04
2017-09-08T03:30:53.634Z,15.04
2017-09-08T03:31:21.752Z,15.08
2017-09-08T03:31:49.885Z,15.04
2017-09-08T03:32:18.066Z,15.07
2017-09-08T03:32:46.151Z,15.01
2017-09-08T03:33:14.332Z,14.98
2017-09-08T03:33:42.400Z,14.95
2017-09-08T03:34:10.361Z,15.02
2017-09-08T03:34:38.344Z,14.98
2017-09-08T03:35:06.415Z,15.01
2017-09-08T03:35:34.578Z,15.02
2017-09-08T03:36:02.778Z,14.97
2017-09-08T03:36:30.884Z,14.98
2017-09-08T03:36:58.829Z,14.98
2017-09-08T03:37:26.830Z,14.98
2017-09-08T03:37:55.041Z,14.94
2017-09-08T03:38:23.234Z,14.94
2017-09-08T03:38:51.398Z,15
2017-09-08T03:39:19.489Z,14.98
2017-09-08T03:39:47.568Z,14.94
2017-09-08T03:40:15.771Z,14.94
2017-09-08T03:40:43.977Z,14.98
2017-09-08T03:41:12.129Z,14.87
2017-09-08T03:41:40.146Z,14.93
2017-09-08T03:42:08.172Z,14.89
2017-09-08T03:42:36.352Z,14.93
2017-09-08T03:43:04.568Z,14.86
2017-09-08T03:43:32.557Z,14.89
2017-09-08T03:44:00.759Z,14.87
2017-09-08T03:44:28.971Z,14.94
2017-09-08T03:44:57.085Z,14.95
2017-09-08T03:45:25.177Z,14.89
2017-09-08T03:45:53.391Z,14.93
2017-09-08T03:46:21.584Z,14.9
2017-09-08T03:46:49.746Z,14.89
2017-09-08T03:47:17.735Z,14.87
2017-09-08T03:47:45.951Z,14.79
2017-09-08T03:48:14.049Z,14.8
2017-09-08T03:48:42.088Z,14.87
2017-09-08T03:49:10.308Z,14.79
2017-09-08T03:49:38.393Z,14.8
2017-09-08T03:50:06.498Z,14.87
2017-09-08T03:50:34.663Z,14.93
2017-09-08T03:51:02.865Z,14.94
2017-09-08T03:51:30.960Z,14.89
2017-09-08T03:51:59.133Z,14.97
2017-09-08T03:52:27.241Z,14.9
2017-09-08T03:52:55.541Z,14.9
2017-09-08T03:53:23.523Z,14.9
2017-09-08T03:53:51.702Z,14.97
2017-09-08T03:54:19.940Z,14.86
2017-09-08T03:54:48.052Z,14.98
2017-09-08T03:55:16.144Z,14.95
2017-09-08T03:55:44.262Z,14.95
2017-09-08T03:56:12.349Z,14.89
2017-09-08T03:56:40.538Z,14.87
2017-09-08T03:57:08.666Z,14.94
2017-09-08T03:57:36.854Z,14.97
2017-09-08T03:58:05.182Z,14.98
2017-09-08T03:58:33.367Z,14.94
2017-09-08T03:59:01.552Z,14.95
2017-09-08T03:59:29.626Z,14.87
2017-09-08T03:59:57.854Z,14.94
2017-09-08T04:00:26.041Z,14.98
2017-09-08T04:00:54.203Z,14.97
2017-09-08T04:01:22.405Z,14.94
2017-09-08T04:01:50.561Z,14.95
2017-09-08T04:02:18.764Z,14.97
2017-09-08T04:02:46.961Z,14.9
2017-09-08T04:03:15.143Z,14.93
2017-09-08T04:03:43.359Z,14.89
2017-09-08T04:04:11.568Z,14.89
2017-09-08T04:04:39.734Z,14.79
2017-09-08T04:05:07.847Z,14.87
2017-09-08T04:05:35.992Z,14.82
2017-09-08T04:06:04.070Z,14.71
2017-09-08T04:06:32.167Z,14.82
2017-09-08T04:07:00.193Z,14.83
2017-09-08T04:07:28.253Z,14.8
2017-09-08T04:07:56.331Z,14.79
2017-09-08T04:08:24.574Z,14.82
2017-09-08T04:08:52.736Z,14.83
2017-09-08T04:09:20.904Z,14.93
2017-09-08T04:09:48.990Z,14.89
2017-09-08T04:10:17.169Z,14.95
2017-09-08T04:10:45.350Z,14.93
2017-09-08T04:11:13.329Z,14.94
2017-09-08T04:11:41.518Z,14.9
2017-09-08T04:12:09.532Z,14.9
2017-09-08T04:12:37.636Z,14.93
2017-09-08T04:13:05.699Z,14.86
2017-09-08T04:13:33.781Z,14.8
2017-09-08T04:14:01.857Z,14.93
2017-09-08T04:14:29.983Z,14.83
2017-09-08T04:14:58.223Z,14.82
2017-09-08T04:15:26.430Z,14.86
2017-09-08T04:15:54.480Z,14.89
2017-09-08T04:16:22.633Z,14.9
2017-09-08T04:16:50.836Z,14.86
2017-09-08T04:17:18.935Z,14.86
2017-09-08T04:17:47.032Z,14.86
2017-09-08T04:18:15.105Z,14.83
2017-09-08T04:18:43.297Z,14.85
2017-09-08T04:19:11.456Z,14.82
2017-09-08T04:19:39.426Z,14.85
2017-09-08T04:20:07.488Z,14.75
2017-09-08T04:20:35.592Z,14.75
2017-09-08T04:21:03.743Z,14.71
2017-09-08T04:21:31.945Z,14.74
2017-09-08T04:21:59.945Z,14.79
2017-09-08T04:22:28.095Z,14.74
2017-09-08T04:22:56.152Z,14.79
2017-09-08T04:23:24.462Z,14.66
2017-09-08T04:23:52.425Z,14.64
2017-09-08T04:24:20.487Z,14.63
2017-09-08T04:24:48.653Z,14.66
2017-09-08T04:25:16.846Z,14.71
2017-09-08T04:25:45.002Z,14.61
2017-09-08T04:26:13.103Z,14.66
2017-09-08T04:26:41.180Z,14.63
2017-09-08T04:27:09.414Z,14.63
2017-09-08T04:27:37.513Z,14.63
2017-09-08T04:28:05.658Z,14.57
2017-09-08T04:28:33.862Z,14.59
2017-09-08T04:29:02.065Z,14.63
2017-09-08T04:29:30.277Z,14.6
2017-09-08T04:29:58.352Z,14.61
2017-09-08T04:30:26.431Z,14.59
2017-09-08T04:30:54.586Z,14.59
2017-09-08T04:31:22.548Z,14.56
2017-09-08T04:31:50.746Z,14.57
2017-09-08T04:32:18.822Z,14.51
2017-09-08T04:32:46.891Z,14.48
2017-09-08T04:33:15.091Z,14.53
2017-09-08T04:33:43.378Z,14.49
2017-09-08T04:34:11.564Z,14.51
2017-09-08T04:34:39.667Z,14.52
2017-09-08T04:35:07.732Z,14.59
2017-09-08T04:35:35.727Z,14.51
2017-09-08T04:36:03.881Z,14.49
2017-09-08T04:36:31.964Z,14.48
2017-09-08T04:37:00.170Z,14.42
2017-09-08T04:37:28.274Z,14.49
2017-09-08T04:37:56.367Z,14.45
2017-09-08T04:38:24.668Z,14.46
2017-09-08T04:38:52.891Z,14.51
2017-09-08T04:39:21.053Z,14.44
2017-09-08T04:39:49.162Z,14.52
2017-09-08T04:40:17.281Z,14.46
2017-09-08T04:40:45.459Z,14.44
2017-09-08T04:41:13.538Z,14.48
2017-09-08T04:41:41.624Z,14.48
2017-09-08T04:42:09.807Z,14.34
2017-09-08T04:42:37.885Z,14.39
2017-09-08T04:43:06.027Z,14.39
2017-09-08T04:43:34.187Z,14.41
2017-09-08T04:44:02.381Z,14.36
2017-09-08T04:44:30.594Z,14.34
2017-09-08T04:44:58.759Z,14.38
2017-09-08T04:45:26.849Z,14.38
2017-09-08T04:45:54.928Z,14.44
2017-09-08T04:46:22.797Z,14.45
2017-09-08T04:46:51.026Z,14.46
2017-09-08T04:47:19.095Z,14.44
2017-09-08T04:47:47.094Z,14.38
2017-09-08T04:48:15.175Z,14.41
2017-09-08T04:48:43.464Z,14.44
2017-09-08T04:49:11.600Z,14.45
2017-09-08T04:49:39.791Z,14.48
2017-09-08T04:50:07.908Z,14.45
2017-09-08T04:50:36.008Z,14.49
2017-09-08T04:51:04.154Z,14.46
2017-09-08T04:51:32.318Z,14.46
2017-09-08T04:52:00.312Z,14.44
2017-09-08T04:52:28.425Z,14.49
2017-09-08T04:52:56.615Z,14.48
2017-09-08T04:53:24.801Z,14.51
2017-09-08T04:53:52.855Z,14.49
2017-09-08T04:54:21.010Z,14.48
2017-09-08T04:54:49.073Z,14.46
2017-09-08T04:55:17.170Z,14.51
2017-09-08T04:55:45.373Z,14.45
2017-09-08T04:56:13.566Z,14.46
2017-09-08T04:56:41.640Z,14.46
2017-09-08T04:57:09.825Z,14.45
2017-09-08T04:57:37.923Z,14.45
2017-09-08T04:58:05.767Z,14.45
2017-09-08T04:58:33.837Z,14.45
2017-09-08T04:59:02.068Z,14.49
2017-09-08T04:59:30.021Z,14.44
2017-09-08T04:59:58.258Z,14.44
2017-09-08T05:00:26.391Z,14.31
2017-09-08T05:00:54.514Z,14.44
2017-09-08T05:01:22.461Z,14.31
2017-09-08T05:01:50.658Z,14.45
2017-09-08T05:02:18.763Z,14.44
2017-09-08T05:02:46.909Z,14.45
2017-09-08T05:03:15.104Z,14.44
2017-09-08T05:03:43.297Z,14.51
2017-09-08T05:04:11.471Z,14.46
2017-09-08T05:04:39.607Z,14.52
2017-09-08T05:05:07.537Z,14.52
2017-09-08T05:05:35.729Z,14.53
2017-09-08T05:06:03.968Z,14.56
2017-09-08T05:06:32.160Z,14.51
2017-09-08T05:07:00.233Z,14.49
2017-09-08T05:07:28.443Z,14.57
2017-09-08T05:07:56.511Z,14.49
2017-09-08T05:08:24.690Z,14.53
2017-09-08T05:08:52.832Z,14.52
2017-09-08T05:09:20.940Z,14.46
2017-09-08T05:09:48.993Z,14.53
2017-09-08T05:10:17.123Z,14.51
2017-09-08T05:10:45.194Z,14.56
2017-09-08T05:11:13.068Z,14.44
2017-09-08T05:11:41.283Z,14.52
2017-09-08T05:12:09.475Z,14.45
2017-09-08T05:12:37.520Z,14.51
2017-09-08T05:13:05.540Z,14.48
2017-09-08T05:13:33.539Z,14.51
2017-09-08T05:14:01.807Z,14.48
2017-09-08T05:14:29.908Z,14.52
2017-09-08T05:14:58.099Z,14.53
2017-09-08T05:15:26.172Z,14.59
2017-09-08T05:15:54.158Z,14.64
2017-09-08T05:16:22.336Z,14.56
2017-09-08T05:16:50.520Z,14.66
2017-09-08T05:17:18.487Z,14.59
2017-09-08T05:17:46.569Z,14.61
2017-09-08T05:18:14.760Z,14.59
2017-09-08T05:18:42.838Z,14.59
2017-09-08T05:19:11.025Z,14.57
2017-09-08T05:19:39.003Z,14.59
2017-09-08T05:20:07.192Z,14.63
2017-09-08T05:20:35.368Z,14.6
2017-09-08T05:21:03.540Z,14.63
2017-09-08T05:21:31.661Z,14.52
2017-09-08T05:21:59.726Z,14.53
2017-09-08T05:22:27.818Z,14.52
2017-09-08T05:22:56.042Z,14.48
2017-09-08T05:23:24.210Z,14.45
2017-09-08T05:23:52.361Z,14.45
2017-09-08T05:24:20.530Z,14.44
2017-09-08T05:24:48.727Z,14.46
2017-09-08T05:25:16.783Z,14.46
2017-09-08T05:25:44.854Z,14.45
2017-09-08T05:26:12.976Z,14.41
2017-09-08T05:26:41.166Z,14.42
2017-09-08T05:27:09.173Z,14.36
2017-09-08T05:27:37.367Z,14.36
2017-09-08T05:28:05.425Z,14.36
2017-09-08T05:28:33.611Z,14.33
2017-09-08T05:29:01.886Z,14.34
2017-09-08T05:29:29.969Z,14.31
2017-09-08T05:29:58.196Z,14.31
2017-09-08T05:30:26.368Z,14.31
2017-09-08T05:30:54.465Z,14.3
2017-09-08T05:31:22.572Z,14.33
2017-09-08T05:31:50.795Z,14.19
2017-09-08T05:32:18.891Z,14.2
2017-09-08T05:32:47.084Z,14.24
2017-09-08T05:33:15.258Z,14.21
2017-09-08T05:33:43.394Z,14.24
2017-09-08T05:34:11.646Z,14.28
2017-09-08T05:34:39.760Z,14.26
2017-09-08T05:35:07.907Z,14.3
2017-09-08T05:35:36.082Z,14.28
2017-09-08T05:36:04.262Z,14.33
2017-09-08T05:36:32.366Z,14.34
2017-09-08T05:37:00.458Z,14.26
2017-09-08T05:37:28.664Z,14.31
2017-09-08T05:37:56.565Z,14.23
2017-09-08T05:38:24.540Z,14.2
2017-09-08T05:38:52.625Z,14.21
2017-09-08T05:39:20.926Z,14.19
2017-09-08T05:39:48.898Z,14.21
2017-09-08T05:40:17.079Z,14.21
2017-09-08T05:40:45.164Z,14.2
2017-09-08T05:41:13.144Z,14.2
2017-09-08T05:41:41.334Z,14.19
2017-09-08T05:42:09.297Z,14.15
2017-09-08T05:42:37.414Z,14.16
2017-09-08T05:43:05.288Z,14.2
2017-09-08T05:43:33.482Z,14.16
2017-09-08T05:44:01.675Z,14.12
2017-09-08T05:44:29.852Z,14.19
2017-09-08T05:44:57.962Z,14.19
2017-09-08T05:45:26.132Z,14.15
2017-09-08T05:45:54.309Z,14.15
2017-09-08T05:46:22.496Z,14.11
2017-09-08T05:46:50.687Z,14.11
2017-09-08T05:47:18.800Z,14.12
2017-09-08T05:47:46.879Z,14.11
2017-09-08T05:48:14.838Z,14.15
2017-09-08T05:48:42.917Z,14.08
2017-09-08T05:49:10.911Z,14.06
2017-09-08T05:49:39.229Z,14.05
2017-09-08T05:50:07.396Z,14.05
2017-09-08T05:50:35.477Z,14.11
2017-09-08T05:51:03.679Z,14.11
2017-09-08T05:51:31.779Z,14.13
2017-09-08T05:51:59.876Z,14.05
2017-09-08T05:52:28.027Z,14.11
2017-09-08T05:52:56.104Z,14.09
2017-09-08T05:53:24.204Z,14.03
2017-09-08T05:53:52.280Z,14.09
2017-09-08T05:54:20.472Z,14.05
2017-09-08T05:54:48.719Z,14.11
2017-09-08T05:55:16.745Z,14.09
2017-09-08T05:55:44.816Z,14.09
2017-09-08T05:56:12.805Z,14.05
2017-09-08T05:56:41.013Z,14.11
2017-09-08T05:57:09.169Z,14.08
2017-09-08T05:57:37.356Z,14.11
2017-09-08T05:58:05.248Z,14.11
2017-09-08T05:58:33.454Z,14.09
2017-09-08T05:59:01.557Z,14.08
2017-09-08T05:59:29.764Z,14.08
2017-09-08T05:59:57.862Z,14.13
2017-09-08T06:00:26.063Z,14.06
2017-09-08T06:00:54.330Z,14.08
2017-09-08T06:01:22.521Z,14.15
2017-09-08T06:01:50.670Z,14.09
2017-09-08T06:02:18.745Z,14.11
2017-09-08T06:02:46.824Z,14.09
2017-09-08T06:03:14.905Z,14.01
2017-09-08T06:03:42.886Z,14.11